Avon Park, Florida
Current Conditions -  °F | °C
As of 3:55 PM on Friday 31 Oct 2014 (Local Time) from KBOW Reporting Station
Clear Clear  
Wind Chill: 24°   Ceiling: Unl
Heat Index: 24°   Visibility: 10mi
Dew Point:   Wind: 17mph
Humidity: 31%   Direction: 280°W
Pressure: 29.82"   Gusts: NA
Location:  27.6°N, 81.51°W
Report Text: KBOW 311955Z 28015KT 10SM SKC 24/06 A2982
Loading
Personal Weather Stations






























Interactive Weather Map
Tropical Storm Tracking
New forecast layout! Learn more

10-Day Weather Forecast

Advertisements
Track Severe Weather on mobile